Aérodrome :
LOGIN :

S'inscrire | Disclaimer

   EN    FR    IT 

 










Légende :    VFR   VFR Marginal   IFR   IFR Intensif   IFR Très Intensif
Visi : 
Plafond : 
>= 8 km
>= 3000ft
5 à 8 km
1000 à 3000 ft
1500m à 5 km
500 à 1000 ft
800 à 1500m
200 à 500 ft
< 800m
< 200 ft
Symboles :   Orages  Brouillard  Fortes neiges  Fortes précipitations  Vent > 20 kt
SIGMETs :   Divers  Orages  Givrage  Turbulence  Onde Orograph.  Cendres Volcan.







- Altitude de l'aérodrome : 291 ft
- Code IATA : ORY
- Voir les cartes d'approche


LFPO - Paris-Orly

DERNIER METAR :
  • 180300Z 17001KT 8000 NSC 13/11 Q1014 NOSIG

METARs EXPIRÉS :
  • 180230Z 00000KT 6000 NSC 13/12 Q1014 NOSIG
  • 180200Z 15001KT 4500 R26/1000U BR NSC 13/12 Q1014 TEMPO CAVOK
  • 180130Z 15002KT 4000 0600 R02/P2000 R26/0550D R08/1700U R24/P2000 R06/0900U BCFG FEW002 13/13 Q1014 TEMPO CAVOK
  • 180100Z 00000KT 2000 0200 R02/0500D R26/0325N R08/1100U R24/0600N R06/0450N BCFG FEW002 11/10 Q1014 TEMPO CAVOK
  • 180030Z 00000KT 6000 0250 R02/0650D R26/0250N R08/0500U R24/P2000 R06/1100U BCFG NSC 12/10 Q1014 TEMPO CAVOK

TAF AMD TAF LFPO
Valide du 18 à 00h jusqu'au 19 à 06h UTC


172329Z 1800/1906 16003KT CAVOK
PROB40
TEMPO 1800/1803 0300 BCFG
ATIS : +33 1 49 75 65 80
Pas de NOTAMs connus pour ce terrain.



MET'MAP, la Météo Aéronautique d'un coup d'oeil ! - Copyright ORBIFLY Décembre 2007 - Disclaimer

ORBIFLY MET'MAP TEAM :

Programmation & Développement : Alexandra Zaïnal
Conception & Développement : Baudouin d'Aumeries
Co-Programmation & Développement : Marc-Olivier Méhu
Soutien technique & logistique : Manuel Goepfert

Contact : metmap@orbifly.com




SOURCES & CREDITS :

   NOAA